createdAt,value
2017-02-20T00:00:32.951Z,83.54
2017-02-20T00:01:32.920Z,83.45
2017-02-20T00:02:32.919Z,83.16
2017-02-20T00:03:32.886Z,83.07
2017-02-20T00:04:32.863Z,83.16
2017-02-20T00:05:32.860Z,82.4
2017-02-20T00:06:32.830Z,82.69
2017-02-20T00:07:32.414Z,82.69
2017-02-20T00:08:32.793Z,82.4
2017-02-20T00:09:32.774Z,82.78
2017-02-20T00:10:32.761Z,82.97
2017-02-20T00:11:32.750Z,82.92
2017-02-20T00:12:32.715Z,82.88
2017-02-20T00:13:32.697Z,83.39
2017-02-20T00:14:32.681Z,83.2
2017-02-20T00:15:32.275Z,83.3
2017-02-20T00:16:32.642Z,83.16
2017-02-20T00:17:32.630Z,83.49
2017-02-20T00:18:32.612Z,83.2
2017-02-20T00:19:32.587Z,83.39
2017-02-20T00:20:32.576Z,83.01
2017-02-20T00:21:32.564Z,83.2
2017-02-20T00:22:32.536Z,83.39
2017-02-20T00:23:32.524Z,83.01
2017-02-20T00:24:32.507Z,82.64
2017-02-20T00:25:32.478Z,82.73
2017-02-20T00:26:32.456Z,83.3
2017-02-20T00:27:32.440Z,83.2
2017-02-20T00:28:32.421Z,83.3
2017-02-20T00:29:32.405Z,83.3
2017-02-20T00:30:32.387Z,83.68
2017-02-20T00:31:32.369Z,83.39
2017-02-20T00:32:32.350Z,83.2
2017-02-20T00:33:32.332Z,83.68
2017-02-20T00:34:32.313Z,83.97
2017-02-20T00:35:32.495Z,83.78
2017-02-20T00:36:32.279Z,83.97
2017-02-20T00:37:32.259Z,84.34
2017-02-20T00:38:32.247Z,84.34
2017-02-20T00:39:32.224Z,84.82
2017-02-20T00:40:32.218Z,85.39
2017-02-20T00:41:32.192Z,85.01
2017-02-20T00:42:32.166Z,85.2
2017-02-20T00:43:32.152Z,85.2
2017-02-20T00:44:32.131Z,85.39
2017-02-20T00:45:32.141Z,85.39
2017-02-20T00:46:32.093Z,85.86
2017-02-20T00:47:32.076Z,85.49
2017-02-20T00:48:32.071Z,85.77
2017-02-20T00:49:32.048Z,86.05
2017-02-20T00:50:32.024Z,86.05
2017-02-20T00:51:32.017Z,86.24
2017-02-20T00:52:31.990Z,85.96
2017-02-20T00:53:31.968Z,86.15
2017-02-20T00:54:31.556Z,86.15
2017-02-20T00:55:31.544Z,87.01
2017-02-20T00:56:31.914Z,86.72
2017-02-20T00:57:31.899Z,86.91
2017-02-20T00:58:31.915Z,87.29
2017-02-20T00:59:31.874Z,87.67
2017-02-20T01:00:31.852Z,87.48
2017-02-20T01:01:31.829Z,87.38
2017-02-20T01:02:31.841Z,87.86
2017-02-20T01:03:31.786Z,87.95
2017-02-20T01:04:31.769Z,88.34
2017-02-20T01:05:31.754Z,88.62
2017-02-20T01:06:31.731Z,88.24
2017-02-20T01:07:31.731Z,88.43
2017-02-20T01:08:31.713Z,89
2017-02-20T01:09:31.678Z,89.61
2017-02-20T01:10:31.666Z,90.28
2017-02-20T01:11:31.652Z,90.66
2017-02-20T01:12:31.626Z,91.52
2017-02-20T01:13:31.611Z,91.13
2017-02-20T01:14:31.598Z,90.94
2017-02-20T01:15:31.573Z,91.13
2017-02-20T01:16:31.551Z,91.52
2017-02-20T01:17:31.534Z,91.33
2017-02-20T01:18:31.518Z,90.56
2017-02-20T01:19:31.504Z,90.75
2017-02-20T01:20:31.483Z,90.85
2017-02-20T01:21:31.461Z,90.37
2017-02-20T01:22:31.445Z,90.23
2017-02-20T01:23:31.436Z,90.28
2017-02-20T01:24:31.406Z,90.23
2017-02-20T01:25:31.389Z,90.19
2017-02-20T01:26:30.978Z,90.09
2017-02-20T01:27:31.361Z,90.19
2017-02-20T01:28:31.331Z,90.05
2017-02-20T01:29:31.315Z,90.47
2017-02-20T01:30:31.298Z,90.47
2017-02-20T01:31:31.283Z,90.56
2017-02-20T01:32:31.275Z,90.66
2017-02-20T01:33:31.244Z,90.28
2017-02-20T01:34:31.224Z,90.47
2017-02-20T01:35:31.203Z,90
2017-02-20T01:36:31.189Z,90.19
2017-02-20T01:37:31.172Z,90.37
2017-02-20T01:38:31.162Z,90.19
2017-02-20T01:39:31.131Z,90.09
2017-02-20T01:40:31.116Z,90
2017-02-20T01:41:31.101Z,90.09
2017-02-20T01:42:31.082Z,90.19
2017-02-20T01:43:31.066Z,89.61
2017-02-20T01:44:30.645Z,89.42
2017-02-20T01:45:31.058Z,89.71
2017-02-20T01:46:31.008Z,89.71
2017-02-20T01:47:30.992Z,90
2017-02-20T01:48:30.975Z,90
2017-02-20T01:49:30.953Z,89.61
2017-02-20T01:50:30.934Z,89.61
2017-02-20T01:51:30.936Z,89.52
2017-02-20T01:52:30.899Z,89.42
2017-02-20T01:53:30.884Z,89.14
2017-02-20T01:54:30.881Z,89.04
2017-02-20T01:55:30.864Z,89.04
2017-02-20T01:56:30.835Z,89.04
2017-02-20T01:57:30.820Z,89.04
2017-02-20T01:58:30.794Z,89.14
2017-02-20T01:59:30.775Z,88.95
2017-02-20T02:00:30.757Z,88.47
2017-02-20T02:01:30.749Z,88.47
2017-02-20T02:02:30.718Z,88.09
2017-02-20T02:03:30.699Z,88
2017-02-20T02:04:30.696Z,88.19
2017-02-20T02:05:30.665Z,88.19
2017-02-20T02:06:30.642Z,88.38
2017-02-20T02:07:30.627Z,88.38
2017-02-20T02:08:30.606Z,88.38
2017-02-20T02:09:30.595Z,87.9
2017-02-20T02:10:30.578Z,87.71
2017-02-20T02:11:30.558Z,87.9
2017-02-20T02:12:30.534Z,87.71
2017-02-20T02:13:30.515Z,87.71
2017-02-20T02:14:30.501Z,87.71
2017-02-20T02:15:30.480Z,87.52
2017-02-20T02:16:30.470Z,87.43
2017-02-20T02:17:30.451Z,87.24
2017-02-20T02:18:30.429Z,87.52
2017-02-20T02:19:30.408Z,86.95
2017-02-20T02:20:30.391Z,87.14
2017-02-20T02:21:30.385Z,87.14
2017-02-20T02:22:30.374Z,87.05
2017-02-20T02:23:30.336Z,87.24
2017-02-20T02:24:30.324Z,87.24
2017-02-20T02:25:30.299Z,87.34
2017-02-20T02:26:30.279Z,86.95
2017-02-20T02:27:30.261Z,86.76
2017-02-20T02:28:30.248Z,86.47
2017-02-20T02:29:30.227Z,86.29
2017-02-20T02:30:30.210Z,86.38
2017-02-20T02:31:30.208Z,85.91
2017-02-20T02:32:30.176Z,85.72
2017-02-20T02:33:30.171Z,85.62
2017-02-20T02:34:30.141Z,86.29
2017-02-20T02:35:30.321Z,85.81
2017-02-20T02:36:30.117Z,86.19
2017-02-20T02:37:30.115Z,86.29
2017-02-20T02:38:30.074Z,85.72
2017-02-20T02:39:30.048Z,86.19
2017-02-20T02:40:29.633Z,86.29
2017-02-20T02:41:30.074Z,86.1
2017-02-20T02:42:30.000Z,86.1
2017-02-20T02:43:29.988Z,86.29
2017-02-20T02:44:29.982Z,85.62
2017-02-20T02:45:29.943Z,85.34
2017-02-20T02:46:29.922Z,85.62
2017-02-20T02:47:29.916Z,85.15
2017-02-20T02:48:29.890Z,85.62
2017-02-20T02:49:29.868Z,85.72
2017-02-20T02:50:29.851Z,85.72
2017-02-20T02:51:29.835Z,85.53
2017-02-20T02:52:29.823Z,85.62
2017-02-20T02:53:29.800Z,85.72
2017-02-20T02:54:29.392Z,85.15
2017-02-20T02:55:29.763Z,85.34
2017-02-20T02:56:29.742Z,85.05
2017-02-20T02:57:29.726Z,85.15
2017-02-20T02:58:29.708Z,85.24
2017-02-20T02:59:29.710Z,85.81
2017-02-20T03:00:29.672Z,85.53
2017-02-20T03:01:29.656Z,85.43
2017-02-20T03:02:29.640Z,85.53
2017-02-20T03:03:29.633Z,85.72
2017-02-20T03:04:29.605Z,85.62
2017-02-20T03:05:29.593Z,85.72
2017-02-20T03:06:29.565Z,85.91
2017-02-20T03:07:29.546Z,85.53
2017-02-20T03:08:29.531Z,86.1
2017-02-20T03:09:29.509Z,85.43
2017-02-20T03:10:29.493Z,86
2017-02-20T03:11:29.476Z,86.19
2017-02-20T03:12:29.457Z,85.91
2017-02-20T03:13:29.440Z,85.53
2017-02-20T03:14:29.421Z,85.72
2017-02-20T03:15:29.404Z,85.53
2017-02-20T03:16:29.387Z,85.91
2017-02-20T03:17:29.410Z,85.53
2017-02-20T03:18:29.351Z,86.1
2017-02-20T03:19:29.352Z,85.81
2017-02-20T03:20:29.317Z,86.1
2017-02-20T03:21:29.300Z,85.91
2017-02-20T03:22:29.280Z,86.1
2017-02-20T03:23:29.260Z,85.91
2017-02-20T03:24:29.247Z,86.1
2017-02-20T03:25:29.227Z,86.19
2017-02-20T03:26:29.209Z,86
2017-02-20T03:27:29.188Z,85.53
2017-02-20T03:28:29.180Z,85.81
2017-02-20T03:29:29.155Z,85.53
2017-02-20T03:30:29.155Z,85.34
2017-02-20T03:31:29.128Z,85.53
2017-02-20T03:32:29.102Z,85.91
2017-02-20T03:33:29.085Z,86.1
2017-02-20T03:34:29.067Z,86.19
2017-02-20T03:35:29.054Z,86
2017-02-20T03:36:29.030Z,86.19
2017-02-20T03:37:29.013Z,85.43
2017-02-20T03:38:28.996Z,85.91
2017-02-20T03:39:28.980Z,86
2017-02-20T03:40:28.957Z,85.72
2017-02-20T03:41:28.943Z,86.1
2017-02-20T03:42:28.924Z,85.81
2017-02-20T03:43:28.913Z,85.72
2017-02-20T03:44:28.894Z,86.19
2017-02-20T03:45:28.892Z,85.81
2017-02-20T03:46:28.460Z,85.43
2017-02-20T03:47:28.838Z,85.72
2017-02-20T03:48:28.823Z,86
2017-02-20T03:49:28.812Z,85.53
2017-02-20T03:50:28.788Z,85.62
2017-02-20T03:51:28.776Z,86.1
2017-02-20T03:52:28.759Z,86.38
2017-02-20T03:53:28.736Z,86.47
2017-02-20T03:54:28.713Z,86.29
2017-02-20T03:55:28.706Z,86.1
2017-02-20T03:56:28.687Z,86.47
2017-02-20T03:57:28.665Z,86.86
2017-02-20T03:58:28.643Z,86.86
2017-02-20T03:59:28.636Z,86.86
2017-02-20T04:00:28.218Z,86.95
2017-02-20T04:01:28.600Z,86.67
2017-02-20T04:02:28.583Z,86.86
2017-02-20T04:03:28.557Z,86.86
2017-02-20T04:04:28.544Z,86.86
2017-02-20T04:05:28.520Z,87.14
2017-02-20T04:06:28.503Z,86.76
2017-02-20T04:07:28.488Z,87.24
2017-02-20T04:08:28.467Z,87.71
2017-02-20T04:09:28.458Z,87.9
2017-02-20T04:10:28.453Z,87.9
2017-02-20T04:11:28.430Z,87.62
2017-02-20T04:12:28.402Z,87.34
2017-02-20T04:13:28.381Z,87.34
2017-02-20T04:14:27.975Z,87.43
2017-02-20T04:15:28.357Z,87.52
2017-02-20T04:16:28.325Z,87.9
2017-02-20T04:17:28.325Z,87.9
2017-02-20T04:18:28.293Z,88
2017-02-20T04:19:28.273Z,88
2017-02-20T04:20:28.257Z,88
2017-02-20T04:21:28.292Z,88.57
2017-02-20T04:22:28.239Z,88.38
2017-02-20T04:23:27.815Z,88.67
2017-02-20T04:24:27.789Z,88
2017-02-20T04:25:28.167Z,87.9
2017-02-20T04:26:28.164Z,88.19
2017-02-20T04:27:28.131Z,88.57
2017-02-20T04:28:28.113Z,88.57
2017-02-20T04:29:28.097Z,88.95
2017-02-20T04:30:28.078Z,89.04
2017-02-20T04:31:27.665Z,88.95
2017-02-20T04:32:28.046Z,88.95
2017-02-20T04:33:28.029Z,88.85
2017-02-20T04:34:28.010Z,88.95
2017-02-20T04:35:28.197Z,88.85
2017-02-20T04:36:27.988Z,88.95
2017-02-20T04:37:27.955Z,89.71
2017-02-20T04:38:27.937Z,89.9
2017-02-20T04:39:27.918Z,90.09
2017-02-20T04:40:27.905Z,90.37
2017-02-20T04:41:27.887Z,90.37
2017-02-20T04:42:27.868Z,90.66
2017-02-20T04:43:27.852Z,90.85
2017-02-20T04:44:27.833Z,90.66
2017-02-20T04:45:27.819Z,90.56
2017-02-20T04:46:27.798Z,91.04
2017-02-20T04:47:27.780Z,91.23
2017-02-20T04:48:27.767Z,91.61
2017-02-20T04:49:27.358Z,91.23
2017-02-20T04:50:27.327Z,91.13
2017-02-20T04:51:27.706Z,91.33
2017-02-20T04:52:27.696Z,90.94
2017-02-20T04:53:27.682Z,91.37
2017-02-20T04:54:27.257Z,91.04
2017-02-20T04:55:27.640Z,91.13
2017-02-20T04:56:27.620Z,91.37
2017-02-20T04:57:27.599Z,91.42
2017-02-20T04:58:27.230Z,91.42
2017-02-20T04:59:27.576Z,91.18
2017-02-20T05:00:27.546Z,91.47
2017-02-20T05:01:27.529Z,91.8
2017-02-20T05:02:27.511Z,91.85
2017-02-20T05:03:27.099Z,91.23
2017-02-20T05:04:27.476Z,91.47
2017-02-20T05:05:27.460Z,91.37
2017-02-20T05:06:27.442Z,91.23
2017-02-20T05:07:27.436Z,91.28
2017-02-20T05:08:27.411Z,91.42
2017-02-20T05:09:27.393Z,91.47
2017-02-20T05:10:27.372Z,91.04
2017-02-20T05:11:27.353Z,91.18
2017-02-20T05:12:27.363Z,91.47
2017-02-20T05:13:27.317Z,91.56
2017-02-20T05:14:27.310Z,91.85
2017-02-20T05:15:27.278Z,91.75
2017-02-20T05:16:27.261Z,92.03
2017-02-20T05:17:27.249Z,91.85
2017-02-20T05:18:27.234Z,92.22
2017-02-20T05:19:27.215Z,92.03
2017-02-20T05:20:27.197Z,91.94
2017-02-20T05:21:27.190Z,92.03
2017-02-20T05:22:27.168Z,92.13
2017-02-20T05:23:27.140Z,91.85
2017-02-20T05:24:27.120Z,92.61
2017-02-20T05:25:27.111Z,92.7
2017-02-20T05:26:27.089Z,91.85
2017-02-20T05:27:27.073Z,92.22
2017-02-20T05:28:27.051Z,91.75
2017-02-20T05:29:27.035Z,92.03
2017-02-20T05:30:27.025Z,91.75
2017-02-20T05:31:27.012Z,91.47
2017-02-20T05:32:26.980Z,91.18
2017-02-20T05:33:26.960Z,91.18
2017-02-20T05:34:26.940Z,91.08
2017-02-20T05:35:26.937Z,91.56
2017-02-20T05:36:26.905Z,90.23
2017-02-20T05:37:26.891Z,89.94
2017-02-20T05:38:26.876Z,90.04
2017-02-20T05:39:26.865Z,89.85
2017-02-20T05:40:26.845Z,88.42
2017-02-20T05:41:26.820Z,88.61
2017-02-20T05:42:26.854Z,88
2017-02-20T05:43:26.795Z,87.43
2017-02-20T05:44:26.765Z,85.62
2017-02-20T05:45:26.762Z,86.14
2017-02-20T05:46:26.749Z,85.47
2017-02-20T05:47:26.716Z,84.77
2017-02-20T05:48:26.697Z,84.67
2017-02-20T05:49:26.686Z,84.48
2017-02-20T05:50:26.665Z,84.1
2017-02-20T05:51:26.641Z,83.82
2017-02-20T05:52:26.630Z,83.44
2017-02-20T05:53:26.606Z,83.62
2017-02-20T05:54:26.203Z,83.62
2017-02-20T05:55:26.585Z,83.15
2017-02-20T05:56:26.567Z,82.68
2017-02-20T05:57:26.544Z,82.58
2017-02-20T05:58:26.531Z,82.01
2017-02-20T05:59:26.511Z,82.1
2017-02-20T06:00:26.499Z,81.82
2017-02-20T06:01:26.077Z,81.35
2017-02-20T06:02:26.453Z,81.06
2017-02-20T06:03:26.438Z,81.06
2017-02-20T06:04:26.425Z,81.16
2017-02-20T06:05:26.392Z,81.16
2017-02-20T06:06:26.379Z,80.96
2017-02-20T06:07:26.355Z,80.68
2017-02-20T06:08:26.355Z,81.16
2017-02-20T06:09:26.325Z,81.16
2017-02-20T06:10:26.325Z,81.25
2017-02-20T06:11:25.892Z,81.73
2017-02-20T06:12:26.269Z,82.01
2017-02-20T06:13:26.248Z,82.1
2017-02-20T06:14:26.238Z,82.58
2017-02-20T06:15:26.221Z,82.49
2017-02-20T06:16:25.803Z,83.06
2017-02-20T06:17:26.184Z,84.2
2017-02-20T06:18:26.164Z,84.1
2017-02-20T06:19:26.143Z,84.67
2017-02-20T06:20:26.125Z,85.15
2017-02-20T06:21:26.122Z,85.62
2017-02-20T06:22:26.093Z,85.53
2017-02-20T06:23:26.081Z,86.1
2017-02-20T06:24:26.060Z,85.81
2017-02-20T06:25:26.036Z,85.91
2017-02-20T06:26:26.019Z,85.81
2017-02-20T06:27:26.013Z,86.19
2017-02-20T06:28:25.980Z,86.67
2017-02-20T06:29:25.967Z,86.57
2017-02-20T06:30:25.980Z,86.86
2017-02-20T06:31:25.927Z,86.9
2017-02-20T06:32:25.911Z,87.43
2017-02-20T06:33:25.894Z,87.52
2017-02-20T06:34:25.874Z,87.81
2017-02-20T06:35:26.064Z,88.28
2017-02-20T06:36:25.841Z,88.57
2017-02-20T06:37:25.825Z,88.57
2017-02-20T06:38:25.804Z,88.95
2017-02-20T06:39:25.788Z,88.57
2017-02-20T06:40:25.770Z,89.47
2017-02-20T06:41:25.753Z,89.23
2017-02-20T06:42:25.739Z,89.61
2017-02-20T06:43:25.719Z,89.52
2017-02-20T06:44:25.703Z,89.47
2017-02-20T06:45:25.688Z,89.56
2017-02-20T06:46:25.672Z,89.94
2017-02-20T06:47:25.642Z,89.75
2017-02-20T06:48:25.637Z,89.94
2017-02-20T06:49:25.611Z,89.18
2017-02-20T06:50:25.603Z,89.18
2017-02-20T06:51:25.581Z,89.09
2017-02-20T06:52:25.557Z,89.09
2017-02-20T06:53:25.546Z,88.52
2017-02-20T06:54:25.121Z,88.33
2017-02-20T06:55:25.503Z,88.04
2017-02-20T06:56:25.485Z,87.43
2017-02-20T06:57:25.470Z,87.34
2017-02-20T06:58:25.452Z,86.99
2017-02-20T06:59:25.432Z,86.38
2017-02-20T07:00:25.416Z,86.38
2017-02-20T07:01:25.401Z,86.33
2017-02-20T07:02:25.391Z,85.91
2017-02-20T07:03:25.363Z,86.33
2017-02-20T07:04:25.340Z,86.38
2017-02-20T07:05:25.326Z,86.14
2017-02-20T07:06:25.317Z,86.52
2017-02-20T07:07:25.292Z,86.33
2017-02-20T07:08:25.277Z,86
2017-02-20T07:09:25.254Z,85.95
2017-02-20T07:10:25.235Z,86.05
2017-02-20T07:11:25.215Z,85.57
2017-02-20T07:12:25.202Z,85.95
2017-02-20T07:13:25.183Z,86.71
2017-02-20T07:14:25.179Z,87.09
2017-02-20T07:15:25.149Z,87.28
2017-02-20T07:16:25.131Z,87.38
2017-02-20T07:17:25.114Z,87.95
2017-02-20T07:18:25.095Z,88.13
2017-02-20T07:19:25.077Z,87.95
2017-02-20T07:20:25.071Z,88.04
2017-02-20T07:21:25.042Z,87.85
2017-02-20T07:22:25.022Z,87.57
2017-02-20T07:23:25.006Z,87.38
2017-02-20T07:24:25.000Z,87.28
2017-02-20T07:25:24.979Z,87.28
2017-02-20T07:26:24.950Z,87.38
2017-02-20T07:27:24.937Z,87.57
2017-02-20T07:28:24.919Z,87.38
2017-02-20T07:29:24.905Z,87.57
2017-02-20T07:30:24.879Z,87.38
2017-02-20T07:31:24.864Z,87.28
2017-02-20T07:32:24.857Z,87.85
2017-02-20T07:33:24.829Z,88.52
2017-02-20T07:34:24.812Z,88.52
2017-02-20T07:35:24.796Z,87.95
2017-02-20T07:36:24.776Z,88.04
2017-02-20T07:37:24.759Z,88.23
2017-02-20T07:38:24.750Z,88.42
2017-02-20T07:39:24.338Z,88.23
2017-02-20T07:40:24.714Z,88.13
2017-02-20T07:41:24.702Z,88.23
2017-02-20T07:42:24.308Z,88.23
2017-02-20T07:43:24.653Z,88.52
2017-02-20T07:44:24.637Z,88.42
2017-02-20T07:45:24.617Z,88.13
2017-02-20T07:46:24.608Z,88.71
2017-02-20T07:47:24.590Z,88.33
2017-02-20T07:48:24.563Z,87.95
2017-02-20T07:49:24.548Z,88.13
2017-02-20T07:50:24.544Z,87.95
2017-02-20T07:51:24.512Z,88.04
2017-02-20T07:52:24.501Z,88.42
2017-02-20T07:53:24.478Z,88.8
2017-02-20T07:54:24.077Z,88.71
2017-02-20T07:55:24.047Z,88.71
2017-02-20T07:56:24.427Z,88.71
2017-02-20T07:57:24.014Z,88.33
2017-02-20T07:58:24.390Z,87.47
2017-02-20T07:59:23.975Z,87.85
2017-02-20T08:00:23.958Z,87.66
2017-02-20T08:01:23.941Z,87.19
2017-02-20T08:02:23.922Z,87.38
2017-02-20T08:03:23.918Z,87.38
2017-02-20T08:04:24.283Z,87.66
2017-02-20T08:05:24.275Z,87.57
2017-02-20T08:06:24.248Z,87.47
2017-02-20T08:07:24.236Z,87.38
2017-02-20T08:08:24.217Z,86.99
2017-02-20T08:09:24.196Z,86.8
2017-02-20T08:10:24.192Z,86.61
2017-02-20T08:11:24.162Z,86.05
2017-02-20T08:12:24.153Z,86.14
2017-02-20T08:13:24.165Z,86.33
2017-02-20T08:14:24.123Z,85.47
2017-02-20T08:15:24.101Z,85.86
2017-02-20T08:16:24.090Z,85.28
2017-02-20T08:17:24.064Z,85
2017-02-20T08:18:24.059Z,84.52
2017-02-20T08:19:24.035Z,84.24
2017-02-20T08:20:24.003Z,83.58
2017-02-20T08:21:23.596Z,83.1
2017-02-20T08:22:23.971Z,83.29
2017-02-20T08:23:23.964Z,83.67
2017-02-20T08:24:23.962Z,82.62
2017-02-20T08:25:23.921Z,82.81
2017-02-20T08:26:23.509Z,82.91
2017-02-20T08:27:23.891Z,82.34
2017-02-20T08:28:23.876Z,82.62
2017-02-20T08:29:23.854Z,82.71
2017-02-20T08:30:23.836Z,82.81
2017-02-20T08:31:23.821Z,82.62
2017-02-20T08:32:23.804Z,82.91
2017-02-20T08:33:23.780Z,82.81
2017-02-20T08:34:23.759Z,82.91
2017-02-20T08:35:23.956Z,82.53
2017-02-20T08:36:23.743Z,82.43
2017-02-20T08:37:23.721Z,82.34
2017-02-20T08:38:23.700Z,82.91
2017-02-20T08:39:23.677Z,82.62
2017-02-20T08:40:23.658Z,82.71
2017-02-20T08:41:23.643Z,82.24
2017-02-20T08:42:23.623Z,82.24
2017-02-20T08:43:23.606Z,82.05
2017-02-20T08:44:23.590Z,81.77
2017-02-20T08:45:23.574Z,81.86
2017-02-20T08:46:23.566Z,81.77
2017-02-20T08:47:23.536Z,81.77
2017-02-20T08:48:23.530Z,82.43
2017-02-20T08:49:23.117Z,82.15
2017-02-20T08:50:23.483Z,83
2017-02-20T08:51:23.069Z,82.91
2017-02-20T08:52:23.449Z,82.81
2017-02-20T08:53:23.431Z,83.1
2017-02-20T08:54:23.422Z,82.53
2017-02-20T08:55:23.401Z,82.62
2017-02-20T08:56:23.382Z,82.34
2017-02-20T08:57:23.361Z,81.86
2017-02-20T08:58:23.344Z,81.67
2017-02-20T08:59:22.933Z,82.05
2017-02-20T09:00:23.311Z,81.67
2017-02-20T09:01:23.295Z,81.2
2017-02-20T09:02:23.275Z,80.82
2017-02-20T09:03:23.257Z,81.01
2017-02-20T09:04:23.238Z,81.2
2017-02-20T09:05:23.221Z,81.01
2017-02-20T09:06:23.215Z,81.29
2017-02-20T09:07:23.187Z,81.29
2017-02-20T09:08:23.166Z,81.14
2017-02-20T09:09:23.155Z,81.48
2017-02-20T09:10:23.136Z,82
2017-02-20T09:11:23.117Z,82.38
2017-02-20T09:12:23.099Z,83.14
2017-02-20T09:13:23.083Z,82.95
2017-02-20T09:14:23.071Z,83.14
2017-02-20T09:15:23.048Z,83.42
2017-02-20T09:16:23.032Z,83.62
2017-02-20T09:17:23.023Z,84.19
2017-02-20T09:18:22.997Z,84.19
2017-02-20T09:19:22.986Z,84.76
2017-02-20T09:20:22.965Z,84.85
2017-02-20T09:21:22.942Z,85.33
2017-02-20T09:22:22.927Z,85.33
2017-02-20T09:23:22.911Z,85.71
2017-02-20T09:24:22.897Z,86.09
2017-02-20T09:25:22.885Z,86.09
2017-02-20T09:26:22.861Z,85.8
2017-02-20T09:27:22.443Z,85.8
2017-02-20T09:28:22.822Z,85.9
2017-02-20T09:29:22.811Z,86.38
2017-02-20T09:30:22.790Z,85.99
2017-02-20T09:31:22.773Z,87.04
2017-02-20T09:32:22.753Z,87.23
2017-02-20T09:33:22.737Z,87.32
2017-02-20T09:34:22.721Z,87.23
2017-02-20T09:35:22.716Z,88.09
2017-02-20T09:36:22.691Z,88.37
2017-02-20T09:37:22.672Z,88.37
2017-02-20T09:38:22.652Z,88.56
2017-02-20T09:39:22.643Z,89.04
2017-02-20T09:40:22.619Z,89.23
2017-02-20T09:41:22.611Z,89.8
2017-02-20T09:42:22.596Z,89.42
2017-02-20T09:43:22.583Z,90.18
2017-02-20T09:44:22.566Z,89.99
2017-02-20T09:45:22.765Z,90.56
2017-02-20T09:46:22.529Z,90.47
2017-02-20T09:47:22.496Z,89.51
2017-02-20T09:48:22.480Z,89.89
2017-02-20T09:49:22.465Z,89.89
2017-02-20T09:50:22.447Z,89.8
2017-02-20T09:51:22.438Z,89.51
2017-02-20T09:52:22.417Z,90.66
2017-02-20T09:53:22.409Z,90.47
2017-02-20T09:54:22.381Z,90.56
2017-02-20T09:55:22.361Z,90.56
2017-02-20T09:56:22.345Z,90.84
2017-02-20T09:57:22.326Z,90.37
2017-02-20T09:58:22.308Z,91.22
2017-02-20T09:59:22.299Z,91.32
2017-02-20T10:00:22.278Z,91.32
2017-02-20T10:01:22.259Z,91.8
2017-02-20T10:02:22.257Z,92.08
2017-02-20T10:03:22.226Z,92.08
2017-02-20T10:04:22.226Z,91.89
2017-02-20T10:05:22.200Z,92.08
2017-02-20T10:06:22.188Z,91.61
2017-02-20T10:07:22.161Z,90.94
2017-02-20T10:08:22.140Z,89.89
2017-02-20T10:09:22.122Z,89.23
2017-02-20T10:10:22.106Z,88.28
2017-02-20T10:11:22.086Z,88.09
2017-02-20T10:12:22.070Z,87.32
2017-02-20T10:13:22.059Z,86.85
2017-02-20T10:14:22.044Z,85.99
2017-02-20T10:15:22.023Z,85.33
2017-02-20T10:16:22.010Z,85.04
2017-02-20T10:17:21.992Z,84.66
2017-02-20T10:18:21.976Z,84.38
2017-02-20T10:19:21.952Z,84.19
2017-02-20T10:20:21.941Z,83.23
2017-02-20T10:21:21.915Z,82.57
2017-02-20T10:22:21.903Z,82.38
2017-02-20T10:23:21.886Z,82.95
2017-02-20T10:24:21.867Z,83.04
2017-02-20T10:25:21.852Z,82.76
2017-02-20T10:26:21.832Z,82.95
2017-02-20T10:27:21.817Z,83.23
2017-02-20T10:28:21.799Z,82.76
2017-02-20T10:29:21.786Z,82.67
2017-02-20T10:30:21.762Z,82.19
2017-02-20T10:31:21.747Z,81.9
2017-02-20T10:32:21.740Z,82.09
2017-02-20T10:33:21.725Z,81.9
2017-02-20T10:34:21.712Z,82.28
2017-02-20T10:35:21.694Z,82
2017-02-20T10:36:21.670Z,81.9
2017-02-20T10:37:21.649Z,82
2017-02-20T10:38:21.637Z,81.52
2017-02-20T10:39:21.618Z,81.62
2017-02-20T10:40:21.594Z,81.24
2017-02-20T10:41:21.576Z,81.62
2017-02-20T10:42:21.565Z,81.52
2017-02-20T10:43:21.554Z,81.14
2017-02-20T10:44:21.535Z,80.95
2017-02-20T10:45:21.505Z,81.33
2017-02-20T10:46:21.513Z,81.52
2017-02-20T10:47:21.481Z,82.09
2017-02-20T10:48:21.462Z,82.09
2017-02-20T10:49:21.445Z,82.09
2017-02-20T10:50:21.429Z,82.67
2017-02-20T10:51:21.438Z,82.67
2017-02-20T10:52:21.391Z,82.42
2017-02-20T10:53:21.377Z,82.67
2017-02-20T10:54:21.364Z,82.7
2017-02-20T10:55:21.339Z,82.51
2017-02-20T10:56:21.337Z,82.8
2017-02-20T10:57:20.912Z,82.7
2017-02-20T10:58:21.288Z,82.61
2017-02-20T10:59:21.279Z,82.9
2017-02-20T11:00:21.258Z,82.51
2017-02-20T11:01:21.243Z,82.51
2017-02-20T11:02:21.226Z,82.99
2017-02-20T11:03:21.212Z,82.76
2017-02-20T11:04:21.189Z,83.28
2017-02-20T11:05:21.173Z,83.09
2017-02-20T11:06:21.157Z,83.09
2017-02-20T11:07:21.138Z,83.09
2017-02-20T11:08:21.121Z,83.18
2017-02-20T11:09:21.115Z,83.28
2017-02-20T11:10:21.118Z,82.8
2017-02-20T11:11:20.696Z,82.9
2017-02-20T11:12:20.676Z,81.95
2017-02-20T11:13:21.041Z,82.51
2017-02-20T11:14:20.626Z,82.61
2017-02-20T11:15:21.010Z,82.9
2017-02-20T11:16:21.001Z,82.99
2017-02-20T11:17:20.968Z,83.09
2017-02-20T11:18:20.559Z,82.99
2017-02-20T11:19:20.952Z,82.51
2017-02-20T11:20:20.920Z,82.51
2017-02-20T11:21:20.900Z,81.56
2017-02-20T11:22:20.906Z,81.28
2017-02-20T11:23:20.872Z,81.76
2017-02-20T11:24:20.852Z,82.42
2017-02-20T11:25:20.849Z,82.32
2017-02-20T11:26:20.826Z,82.32
2017-02-20T11:27:20.805Z,83.28
2017-02-20T11:28:20.798Z,82.99
2017-02-20T11:29:20.778Z,82.99
2017-02-20T11:30:20.771Z,83.28
2017-02-20T11:31:20.339Z,83.18
2017-02-20T11:32:20.719Z,83.09
2017-02-20T11:33:20.702Z,83.18
2017-02-20T11:34:20.720Z,83.56
2017-02-20T11:35:20.672Z,83.47
2017-02-20T11:36:20.652Z,84.04
2017-02-20T11:37:20.639Z,84.33
2017-02-20T11:38:20.622Z,85.08
2017-02-20T11:39:20.213Z,84.52
2017-02-20T11:40:20.598Z,84.61
2017-02-20T11:41:20.577Z,85.28
2017-02-20T11:42:20.556Z,85.28
2017-02-20T11:43:20.140Z,86.04
2017-02-20T11:44:20.122Z,86.04
2017-02-20T11:45:20.501Z,87.27
2017-02-20T11:46:20.090Z,87.46
2017-02-20T11:47:20.074Z,88.51
2017-02-20T11:48:20.453Z,88.79
2017-02-20T11:49:20.441Z,89.27
2017-02-20T11:50:20.419Z,89.75
2017-02-20T11:51:20.021Z,89.56
2017-02-20T11:52:19.990Z,89.94
2017-02-20T11:53:19.973Z,89.84
2017-02-20T11:54:19.958Z,89.27
2017-02-20T11:55:20.335Z,88.6
2017-02-20T11:56:20.332Z,88.89
2017-02-20T11:57:20.304Z,88.23
2017-02-20T11:58:20.287Z,86.42
2017-02-20T11:59:20.299Z,86.22
2017-02-20T12:00:20.259Z,85.56
2017-02-20T12:01:20.254Z,84.42
2017-02-20T12:02:20.230Z,83.65
2017-02-20T12:03:20.204Z,82.99
2017-02-20T12:04:20.196Z,83.18
2017-02-20T12:05:20.174Z,82.04
2017-02-20T12:06:20.157Z,81.37
2017-02-20T12:07:20.141Z,80.8
2017-02-20T12:08:20.141Z,80.52
2017-02-20T12:09:19.734Z,79.94
2017-02-20T12:10:20.097Z,79.66
2017-02-20T12:11:20.078Z,79.38
2017-02-20T12:12:19.731Z,79.19
2017-02-20T12:13:20.045Z,79.47
2017-02-20T12:14:20.028Z,78.9
2017-02-20T12:15:20.012Z,78.8
2017-02-20T12:16:19.988Z,78.71
2017-02-20T12:17:19.974Z,78.33
2017-02-20T12:18:19.560Z,78.14
2017-02-20T12:19:19.940Z,77.66
2017-02-20T12:20:19.933Z,77.95
2017-02-20T12:21:19.909Z,77.37
2017-02-20T12:22:19.894Z,77.28
2017-02-20T12:23:19.871Z,77.56
2017-02-20T12:24:19.471Z,77.47
2017-02-20T12:25:19.850Z,76.81
2017-02-20T12:26:19.833Z,76.9
2017-02-20T12:27:19.419Z,76.9
2017-02-20T12:28:19.792Z,76.81
2017-02-20T12:29:19.773Z,76.81
2017-02-20T12:30:19.766Z,77
2017-02-20T12:31:19.757Z,76.9
2017-02-20T12:32:19.729Z,77
2017-02-20T12:33:19.711Z,76.61
2017-02-20T12:34:19.696Z,76.71
2017-02-20T12:35:19.685Z,77.09
2017-02-20T12:36:19.858Z,77
2017-02-20T12:37:19.255Z,76.71
2017-02-20T12:38:19.621Z,77.09
2017-02-20T12:39:19.613Z,76.71
2017-02-20T12:40:19.605Z,76.33
2017-02-20T12:41:19.582Z,76.33
2017-02-20T12:42:19.590Z,76.71
2017-02-20T12:43:19.544Z,76.14
2017-02-20T12:44:19.541Z,75.85
2017-02-20T12:45:19.512Z,76.04
2017-02-20T12:46:19.495Z,76.04
2017-02-20T12:47:19.476Z,76.52
2017-02-20T12:48:19.464Z,76.33
2017-02-20T12:49:19.440Z,76.52
2017-02-20T12:50:19.431Z,76.42
2017-02-20T12:51:19.406Z,76.33
2017-02-20T12:52:19.386Z,76.33
2017-02-20T12:53:19.378Z,76.81
2017-02-20T12:54:19.360Z,76.81
2017-02-20T12:55:19.337Z,76.61
2017-02-20T12:56:19.365Z,76.14
2017-02-20T12:57:18.918Z,76.52